BWA532 TBPB-TFFR
Flight info
| Callsign | BWA532 |
|---|---|
| Flight time | 0h 47m |
| Altitude | 30000 |
| Route | SEKUN DCT DOM DOM1A |
| Aircraft | B738/M-SDE2E3FGHIRWXY/LB1 |
Departure
| Time | 2026-05-05 18:26 |
|---|---|
| Airport | Grantley Adams International Airport (TBPB) |
Arrival
| Time | 2026-05-05 19:13 |
|---|---|
| Airport | Maryse Condé International Airport (TFFR) |
| Time | Latitude | Longitude | Altitude | Speed | Heading |
|---|---|---|---|---|---|
| 2026-05-05 18:00 | 13.07902 | -59.48689 | 175 ft | 0 kts | 348° |
| 2026-05-05 18:19 | 13.07889 | -59.48686 | 175 ft | 2 kts | 348° |
| 2026-05-05 18:19 | 13.07873 | -59.48682 | 175 ft | 2 kts | 348° |
| 2026-05-05 18:19 | 13.07857 | -59.48679 | 175 ft | 2 kts | 346° |
| 2026-05-05 18:19 | 13.07842 | -59.48673 | 175 ft | 2 kts | 307° |
| 2026-05-05 18:20 | 13.07837 | -59.48663 | 175 ft | 1 kts | 259° |
| 2026-05-05 18:20 | 13.07838 | -59.48660 | 175 ft | 0 kts | 257° |
| 2026-05-05 18:21 | 13.07834 | -59.48676 | 175 ft | 8 kts | 257° |
| 2026-05-05 18:22 | 13.07793 | -59.48775 | 175 ft | 22 kts | 225° |
| 2026-05-05 18:22 | 13.07716 | -59.48868 | 175 ft | 22 kts | 258° |
| 2026-05-05 18:22 | 13.07673 | -59.49037 | 175 ft | 27 kts | 256° |
| 2026-05-05 18:22 | 13.07623 | -59.49237 | 175 ft | 32 kts | 256° |
| 2026-05-05 18:23 | 13.07565 | -59.49472 | 175 ft | 36 kts | 255° |
| 2026-05-05 18:23 | 13.07502 | -59.49733 | 175 ft | 39 kts | 256° |
| 2026-05-05 18:23 | 13.07437 | -59.50001 | 175 ft | 38 kts | 256° |
| 2026-05-05 18:23 | 13.07373 | -59.50259 | 175 ft | 35 kts | 257° |
| 2026-05-05 18:24 | 13.07318 | -59.50482 | 176 ft | 27 kts | 255° |
| 2026-05-05 18:24 | 13.07280 | -59.50641 | 175 ft | 19 kts | 256° |
| 2026-05-05 18:24 | 13.07219 | -59.50721 | 175 ft | 2 kts | 179° |
| 2026-05-05 18:25 | 13.07217 | -59.50721 | 175 ft | 3 kts | 179° |
| 2026-05-05 18:25 | 13.07172 | -59.50713 | 175 ft | 17 kts | 167° |
| 2026-05-05 18:25 | 13.07117 | -59.50614 | 176 ft | 16 kts | 78° |
| 2026-05-05 18:25 | 13.07188 | -59.50324 | 177 ft | 78 kts | 76° |
| 2026-05-05 18:26 | 13.07381 | -59.49543 | 175 ft | 145 kts | 76° |
| 2026-05-05 18:26 | 13.07687 | -59.48434 | 627 ft | 165 kts | 73° |
| 2026-05-05 18:26 | 13.07991 | -59.47378 | 1741 ft | 148 kts | 71° |
| 2026-05-05 18:26 | 13.08599 | -59.46572 | 2760 ft | 148 kts | 32° |
| 2026-05-05 18:27 | 13.09596 | -59.46322 | 3662 ft | 148 kts | 9° |
| 2026-05-05 18:27 | 13.10616 | -59.46570 | 4262 ft | 160 kts | 332° |
| 2026-05-05 18:27 | 13.11532 | -59.47413 | 4537 ft | 194 kts | 317° |
| 2026-05-05 18:27 | 13.12590 | -59.48472 | 4790 ft | 226 kts | 319° |
| 2026-05-05 18:28 | 13.15230 | -59.50776 | 5341 ft | 266 kts | 324° |
| 2026-05-05 18:28 | 13.16779 | -59.51961 | 5631 ft | 288 kts | 326° |
| 2026-05-05 18:28 | 13.18448 | -59.53142 | 6415 ft | 293 kts | 328° |
| 2026-05-05 18:29 | 13.20167 | -59.54287 | 7219 ft | 296 kts | 329° |
| 2026-05-05 18:29 | 13.21925 | -59.55404 | 8046 ft | 298 kts | 331° |
| 2026-05-05 18:29 | 13.23720 | -59.56504 | 8837 ft | 301 kts | 332° |
| 2026-05-05 18:29 | 13.25539 | -59.57592 | 9653 ft | 304 kts | 332° |
| 2026-05-05 18:30 | 13.27385 | -59.58677 | 10374 ft | 309 kts | 333° |
| 2026-05-05 18:30 | 13.29292 | -59.59782 | 10617 ft | 331 kts | 333° |
| 2026-05-05 18:30 | 13.31370 | -59.60975 | 10785 ft | 353 kts | 334° |
| 2026-05-05 18:30 | 13.33551 | -59.62221 | 11231 ft | 363 kts | 334° |
| 2026-05-05 18:31 | 13.35774 | -59.63489 | 11862 ft | 366 kts | 333° |
| 2026-05-05 18:31 | 13.38007 | -59.64761 | 12576 ft | 367 kts | 334° |
| 2026-05-05 18:31 | 13.40250 | -59.66038 | 13214 ft | 371 kts | 334° |
| 2026-05-05 18:31 | 13.42522 | -59.67329 | 13837 ft | 374 kts | 334° |
| 2026-05-05 18:32 | 13.44806 | -59.68626 | 14415 ft | 376 kts | 334° |
| 2026-05-05 18:32 | 13.47101 | -59.69930 | 14999 ft | 378 kts | 334° |
| 2026-05-05 18:32 | 13.49385 | -59.71228 | 15549 ft | 381 kts | 334° |
| 2026-05-05 18:32 | 13.51715 | -59.72551 | 16107 ft | 383 kts | 333° |
| 2026-05-05 18:33 | 13.54058 | -59.73881 | 16674 ft | 386 kts | 333° |
| 2026-05-05 18:33 | 13.56419 | -59.75223 | 17242 ft | 388 kts | 333° |
| 2026-05-05 18:33 | 13.58787 | -59.76569 | 17818 ft | 390 kts | 333° |
| 2026-05-05 18:33 | 13.61170 | -59.77924 | 18380 ft | 392 kts | 332° |
| 2026-05-05 18:34 | 13.63567 | -59.79287 | 18845 ft | 395 kts | 332° |
| 2026-05-05 18:34 | 13.65980 | -59.80659 | 19262 ft | 399 kts | 332° |
| 2026-05-05 18:34 | 13.68424 | -59.82048 | 19691 ft | 402 kts | 332° |
| 2026-05-05 18:34 | 13.70884 | -59.83448 | 20117 ft | 405 kts | 332° |
| 2026-05-05 18:35 | 13.73359 | -59.84856 | 20531 ft | 408 kts | 332° |
| 2026-05-05 18:35 | 13.75857 | -59.86278 | 20945 ft | 412 kts | 332° |
| 2026-05-05 18:35 | 13.78376 | -59.87713 | 21350 ft | 415 kts | 332° |
| 2026-05-05 18:35 | 13.80874 | -59.89135 | 21740 ft | 418 kts | 332° |
| 2026-05-05 18:36 | 13.83426 | -59.90589 | 22147 ft | 421 kts | 331° |
| 2026-05-05 18:36 | 13.86002 | -59.92057 | 22531 ft | 424 kts | 331° |
| 2026-05-05 18:36 | 13.88594 | -59.93534 | 22885 ft | 427 kts | 332° |
| 2026-05-05 18:36 | 13.91206 | -59.95023 | 23236 ft | 430 kts | 331° |
| 2026-05-05 18:37 | 13.93831 | -59.96519 | 23616 ft | 432 kts | 331° |
| 2026-05-05 18:37 | 13.96471 | -59.98025 | 23913 ft | 435 kts | 331° |
| 2026-05-05 18:37 | 13.99123 | -59.99538 | 24209 ft | 437 kts | 331° |
| 2026-05-05 18:37 | 14.01794 | -60.01062 | 24535 ft | 438 kts | 331° |
| 2026-05-05 18:38 | 14.04465 | -60.02587 | 24881 ft | 439 kts | 331° |
| 2026-05-05 18:38 | 14.07149 | -60.04119 | 25180 ft | 441 kts | 331° |
| 2026-05-05 18:38 | 14.09840 | -60.05656 | 25473 ft | 443 kts | 331° |
| 2026-05-05 18:38 | 14.12506 | -60.07179 | 25775 ft | 445 kts | 331° |
| 2026-05-05 18:39 | 14.15213 | -60.08726 | 26070 ft | 446 kts | 331° |
| 2026-05-05 18:39 | 14.17935 | -60.10281 | 26352 ft | 448 kts | 331° |
| 2026-05-05 18:39 | 14.20664 | -60.11842 | 26643 ft | 450 kts | 331° |
| 2026-05-05 18:39 | 14.23404 | -60.13409 | 26930 ft | 451 kts | 331° |
| 2026-05-05 18:40 | 14.26160 | -60.14985 | 27215 ft | 453 kts | 331° |
| 2026-05-05 18:40 | 14.28917 | -60.16563 | 27484 ft | 455 kts | 331° |
| 2026-05-05 18:40 | 14.31692 | -60.18151 | 27757 ft | 456 kts | 331° |
| 2026-05-05 18:40 | 14.34469 | -60.19741 | 28038 ft | 457 kts | 332° |
| 2026-05-05 18:41 | 14.37252 | -60.21335 | 28295 ft | 459 kts | 331° |
| 2026-05-05 18:41 | 14.40052 | -60.22939 | 28558 ft | 460 kts | 332° |
| 2026-05-05 18:41 | 14.42859 | -60.24548 | 28792 ft | 462 kts | 331° |
| 2026-05-05 18:41 | 14.45679 | -60.26164 | 29000 ft | 465 kts | 331° |
| 2026-05-05 18:42 | 14.48505 | -60.27785 | 29263 ft | 465 kts | 331° |
| 2026-05-05 18:42 | 14.51332 | -60.29406 | 29631 ft | 464 kts | 331° |
| 2026-05-05 18:42 | 14.54109 | -60.31000 | 30007 ft | 462 kts | 332° |
| 2026-05-05 18:42 | 14.56927 | -60.32618 | 30027 ft | 465 kts | 332° |
| 2026-05-05 18:43 | 14.62581 | -60.35864 | 30038 ft | 463 kts | 331° |
| 2026-05-05 18:43 | 14.67824 | -60.39678 | 30047 ft | 463 kts | 316° |
| 2026-05-05 18:44 | 14.72391 | -60.44392 | 30051 ft | 465 kts | 315° |
| 2026-05-05 18:44 | 14.76943 | -60.49149 | 30051 ft | 466 kts | 315° |
| 2026-05-05 18:45 | 14.81533 | -60.53888 | 30047 ft | 466 kts | 316° |
| 2026-05-05 18:45 | 14.86143 | -60.58615 | 30052 ft | 467 kts | 316° |
| 2026-05-05 18:46 | 14.90730 | -60.63311 | 30050 ft | 466 kts | 316° |
| 2026-05-05 18:46 | 14.95367 | -60.68064 | 30049 ft | 466 kts | 316° |
| 2026-05-05 18:47 | 14.99938 | -60.72753 | 30047 ft | 466 kts | 316° |
| 2026-05-05 18:47 | 15.04531 | -60.77469 | 30057 ft | 465 kts | 315° |
| 2026-05-05 18:48 | 15.09120 | -60.82184 | 30052 ft | 465 kts | 316° |
| 2026-05-05 18:48 | 15.13703 | -60.86896 | 30054 ft | 464 kts | 315° |
| 2026-05-05 18:49 | 15.18230 | -60.91553 | 29800 ft | 450 kts | 316° |
| 2026-05-05 18:49 | 15.20429 | -60.93818 | 29435 ft | 442 kts | 315° |
| 2026-05-05 18:49 | 15.22599 | -60.96052 | 28986 ft | 437 kts | 315° |
| 2026-05-05 18:50 | 15.24747 | -60.98263 | 28514 ft | 434 kts | 315° |
| 2026-05-05 18:50 | 15.26861 | -61.00441 | 28065 ft | 431 kts | 315° |
| 2026-05-05 18:50 | 15.28982 | -61.02627 | 27602 ft | 428 kts | 315° |
| 2026-05-05 18:50 | 15.31093 | -61.04803 | 27147 ft | 425 kts | 315° |
| 2026-05-05 18:51 | 15.33184 | -61.06959 | 26685 ft | 422 kts | 315° |
| 2026-05-05 18:51 | 15.35267 | -61.09106 | 26236 ft | 421 kts | 315° |
| 2026-05-05 18:51 | 15.37348 | -61.11253 | 25770 ft | 423 kts | 315° |
| 2026-05-05 18:51 | 15.39408 | -61.13380 | 25297 ft | 424 kts | 315° |
| 2026-05-05 18:52 | 15.41494 | -61.15533 | 24847 ft | 422 kts | 315° |
| 2026-05-05 18:52 | 15.43568 | -61.17675 | 24370 ft | 421 kts | 315° |
| 2026-05-05 18:52 | 15.45641 | -61.19817 | 23920 ft | 419 kts | 315° |
| 2026-05-05 18:52 | 15.47704 | -61.21949 | 23485 ft | 418 kts | 315° |
| 2026-05-05 18:53 | 15.49758 | -61.24073 | 22995 ft | 416 kts | 315° |
| 2026-05-05 18:53 | 15.51800 | -61.26185 | 22534 ft | 412 kts | 315° |
| 2026-05-05 18:53 | 15.53823 | -61.28276 | 22077 ft | 408 kts | 315° |
| 2026-05-05 18:53 | 15.55783 | -61.30384 | 21626 ft | 404 kts | 311° |
| 2026-05-05 18:54 | 15.57567 | -61.32631 | 21214 ft | 400 kts | 309° |
| 2026-05-05 18:54 | 15.59245 | -61.34865 | 20794 ft | 393 kts | 308° |
| 2026-05-05 18:54 | 15.60883 | -61.37081 | 20355 ft | 381 kts | 308° |
| 2026-05-05 18:54 | 15.62478 | -61.39234 | 19947 ft | 370 kts | 309° |
| 2026-05-05 18:55 | 15.64045 | -61.41336 | 19561 ft | 366 kts | 309° |
| 2026-05-05 18:55 | 15.65613 | -61.43425 | 19170 ft | 366 kts | 309° |
| 2026-05-05 18:55 | 15.67186 | -61.45511 | 18762 ft | 367 kts | 309° |
| 2026-05-05 18:55 | 15.68765 | -61.47600 | 18346 ft | 367 kts | 309° |
| 2026-05-05 18:56 | 15.70332 | -61.49672 | 17884 ft | 360 kts | 310° |
| 2026-05-05 18:56 | 15.71837 | -61.51661 | 17459 ft | 350 kts | 310° |
| 2026-05-05 18:56 | 15.73318 | -61.53618 | 17060 ft | 340 kts | 309° |
| 2026-05-05 18:56 | 15.74759 | -61.55521 | 16675 ft | 330 kts | 310° |
| 2026-05-05 18:57 | 15.76161 | -61.57373 | 16296 ft | 322 kts | 310° |
| 2026-05-05 18:57 | 15.77532 | -61.59185 | 15952 ft | 318 kts | 309° |
| 2026-05-05 18:57 | 15.78890 | -61.60979 | 15647 ft | 313 kts | 309° |
| 2026-05-05 18:57 | 15.80232 | -61.62751 | 15284 ft | 311 kts | 309° |
| 2026-05-05 18:58 | 15.81563 | -61.64511 | 14934 ft | 309 kts | 309° |
| 2026-05-05 18:58 | 15.82885 | -61.66260 | 14592 ft | 307 kts | 309° |
| 2026-05-05 18:58 | 15.84212 | -61.68015 | 14237 ft | 309 kts | 309° |
| 2026-05-05 18:58 | 15.85548 | -61.69782 | 13882 ft | 312 kts | 309° |
| 2026-05-05 18:59 | 15.86872 | -61.71534 | 13489 ft | 312 kts | 309° |
| 2026-05-05 18:59 | 15.88209 | -61.73305 | 13128 ft | 310 kts | 309° |
| 2026-05-05 18:59 | 15.89542 | -61.75070 | 12769 ft | 309 kts | 309° |
| 2026-05-05 18:59 | 15.90868 | -61.76828 | 12421 ft | 308 kts | 309° |
| 2026-05-05 19:00 | 15.92194 | -61.78584 | 12067 ft | 308 kts | 309° |
| 2026-05-05 19:00 | 15.93516 | -61.80337 | 11722 ft | 308 kts | 309° |
| 2026-05-05 19:00 | 15.94836 | -61.82086 | 11384 ft | 307 kts | 309° |
| 2026-05-05 19:00 | 15.96150 | -61.83830 | 11032 ft | 307 kts | 309° |
| 2026-05-05 19:01 | 15.97469 | -61.85579 | 10727 ft | 305 kts | 309° |
| 2026-05-05 19:01 | 15.98759 | -61.87290 | 10551 ft | 297 kts | 309° |
| 2026-05-05 19:01 | 16.00022 | -61.88966 | 10436 ft | 293 kts | 309° |
| 2026-05-05 19:01 | 16.01280 | -61.90635 | 10327 ft | 299 kts | 309° |
| 2026-05-05 19:02 | 16.02706 | -61.92222 | 10179 ft | 303 kts | 327° |
| 2026-05-05 19:02 | 16.04621 | -61.93035 | 9996 ft | 297 kts | 353° |
| 2026-05-05 19:02 | 16.06684 | -61.93138 | 9701 ft | 296 kts | 2° |
| 2026-05-05 19:02 | 16.08737 | -61.93126 | 9379 ft | 293 kts | 3° |
| 2026-05-05 19:03 | 16.10773 | -61.93103 | 9076 ft | 291 kts | 3° |
| 2026-05-05 19:03 | 16.12786 | -61.93085 | 8776 ft | 287 kts | 2° |
| 2026-05-05 19:03 | 16.14745 | -61.93074 | 8496 ft | 284 kts | 2° |
| 2026-05-05 19:03 | 16.16716 | -61.93066 | 8226 ft | 283 kts | 3° |
| 2026-05-05 19:04 | 16.18681 | -61.93062 | 7952 ft | 282 kts | 2° |
| 2026-05-05 19:04 | 16.20644 | -61.93060 | 7673 ft | 280 kts | 2° |
| 2026-05-05 19:04 | 16.22568 | -61.93060 | 7411 ft | 274 kts | 3° |
| 2026-05-05 19:04 | 16.24459 | -61.93060 | 7076 ft | 270 kts | 2° |
| 2026-05-05 19:05 | 16.26326 | -61.93060 | 6796 ft | 266 kts | 3° |
| 2026-05-05 19:05 | 16.28157 | -61.93060 | 6534 ft | 261 kts | 3° |
| 2026-05-05 19:05 | 16.29973 | -61.93036 | 6250 ft | 261 kts | 8° |
| 2026-05-05 19:05 | 16.31609 | -61.92400 | 6100 ft | 254 kts | 39° |
| 2026-05-05 19:06 | 16.32713 | -61.91019 | 6000 ft | 248 kts | 68° |
| 2026-05-05 19:06 | 16.33112 | -61.89292 | 5906 ft | 247 kts | 90° |
| 2026-05-05 19:06 | 16.32928 | -61.87513 | 5817 ft | 247 kts | 101° |
| 2026-05-05 19:06 | 16.32591 | -61.85763 | 5712 ft | 246 kts | 102° |
| 2026-05-05 19:07 | 16.32241 | -61.84005 | 5453 ft | 247 kts | 102° |
| 2026-05-05 19:07 | 16.32018 | -61.82850 | 5275 ft | 245 kts | 102° |
| 2026-05-05 19:07 | 16.31587 | -61.80560 | 4904 ft | 241 kts | 101° |
| 2026-05-05 19:07 | 16.31269 | -61.78847 | 4642 ft | 239 kts | 101° |
| 2026-05-05 19:08 | 16.30957 | -61.77148 | 4396 ft | 238 kts | 101° |
| 2026-05-05 19:08 | 16.30749 | -61.76027 | 4206 ft | 237 kts | 101° |
| 2026-05-05 19:08 | 16.30445 | -61.74390 | 3915 ft | 221 kts | 101° |
| 2026-05-05 19:08 | 16.30171 | -61.72909 | 3714 ft | 192 kts | 101° |
| 2026-05-05 19:09 | 16.29933 | -61.71621 | 3451 ft | 176 kts | 100° |
| 2026-05-05 19:09 | 16.29709 | -61.70406 | 3143 ft | 164 kts | 100° |
| 2026-05-05 19:09 | 16.29506 | -61.69305 | 2928 ft | 147 kts | 99° |
| 2026-05-05 19:09 | 16.29323 | -61.68307 | 2744 ft | 142 kts | 99° |
| 2026-05-05 19:10 | 16.29136 | -61.67291 | 2545 ft | 140 kts | 99° |
| 2026-05-05 19:10 | 16.28953 | -61.66300 | 2336 ft | 139 kts | 99° |
| 2026-05-05 19:10 | 16.28772 | -61.65328 | 2150 ft | 138 kts | 99° |
| 2026-05-05 19:10 | 16.28590 | -61.64337 | 1972 ft | 141 kts | 100° |
| 2026-05-05 19:11 | 16.28402 | -61.63328 | 1763 ft | 141 kts | 100° |
| 2026-05-05 19:11 | 16.28220 | -61.62340 | 1573 ft | 135 kts | 100° |
| 2026-05-05 19:11 | 16.28044 | -61.61388 | 1385 ft | 133 kts | 99° |
| 2026-05-05 19:11 | 16.27871 | -61.60447 | 1208 ft | 132 kts | 101° |
| 2026-05-05 19:12 | 16.27689 | -61.59462 | 1033 ft | 146 kts | 101° |
| 2026-05-05 19:12 | 16.27503 | -61.58437 | 854 ft | 138 kts | 101° |
| 2026-05-05 19:12 | 16.27333 | -61.57458 | 564 ft | 138 kts | 103° |
| 2026-05-05 19:12 | 16.27164 | -61.56523 | 431 ft | 126 kts | 105° |
| 2026-05-05 19:13 | 16.26991 | -61.55625 | 239 ft | 129 kts | 108° |
| 2026-05-05 19:13 | 16.26809 | -61.54687 | 73 ft | 131 kts | 105° |
| 2026-05-05 19:13 | 16.26649 | -61.53841 | 30 ft | 102 kts | 101° |
| 2026-05-05 19:13 | 16.26557 | -61.53340 | 26 ft | 38 kts | 100° |
| 2026-05-05 19:14 | 16.26531 | -61.53188 | 26 ft | 25 kts | 100° |
| 2026-05-05 19:14 | 16.26522 | -61.53009 | 27 ft | 23 kts | 54° |
| 2026-05-05 19:14 | 16.26646 | -61.52967 | 26 ft | 10 kts | 10° |
| 2026-05-05 19:14 | 16.26697 | -61.52957 | 27 ft | 8 kts | 10° |
| 2026-05-05 19:15 | 16.26778 | -61.52942 | 24 ft | 15 kts | 13° |
| 2026-05-05 19:15 | 16.26844 | -61.52843 | 24 ft | 21 kts | 97° |
| 2026-05-05 19:15 | 16.26825 | -61.52731 | 24 ft | 15 kts | 91° |
| 2026-05-05 19:15 | 16.26880 | -61.52679 | 24 ft | 10 kts | 9° |
| 2026-05-05 19:16 | 16.26906 | -61.52675 | 26 ft | 3 kts | 10° |
| 2026-05-05 19:16 | 16.26912 | -61.52674 | 25 ft | 0 kts | 10° |